createdAt,value
2018-11-21T00:00:54.116Z,88.75
2018-11-21T00:03:23.633Z,88.66
2018-11-21T00:06:12.370Z,88.65
2018-11-21T00:09:00.858Z,88.77
2018-11-21T00:11:30.395Z,88.85
2018-11-21T00:13:59.904Z,88.56
2018-11-21T00:16:29.699Z,88.62
2018-11-21T00:19:00.759Z,88.71
2018-11-21T00:21:29.448Z,88.86
2018-11-21T00:24:18.361Z,88.92
2018-11-21T00:26:48.127Z,89.10
2018-11-21T00:29:17.978Z,89.24
2018-11-21T00:31:47.454Z,89.31
2018-11-21T00:34:16.980Z,89.40
2018-11-21T00:36:46.473Z,89.40
2018-11-21T00:39:16.553Z,89.34
2018-11-21T00:42:05.254Z,89.48
2018-11-21T00:44:34.736Z,89.68
2018-11-21T00:47:04.613Z,89.66
2018-11-21T00:49:53.157Z,89.87
2018-11-21T00:52:22.678Z,89.93
2018-11-21T00:55:11.157Z,90.01
2018-11-21T00:57:41.224Z,89.95
2018-11-21T01:00:12.430Z,89.97
2018-11-21T01:02:41.895Z,90.05
2018-11-21T01:05:10.974Z,89.87
2018-11-21T01:07:40.457Z,89.78
2018-11-21T01:10:09.952Z,89.77
2018-11-21T01:12:39.762Z,89.96
2018-11-21T01:15:09.707Z,89.89
2018-11-21T01:17:39.234Z,89.89
2018-11-21T01:20:09.552Z,90.00
2018-11-21T01:22:39.726Z,90.10
2018-11-21T01:25:28.283Z,90.01
2018-11-21T01:27:58.137Z,90.13
2018-11-21T01:30:27.928Z,90.08
2018-11-21T01:33:16.130Z,90.15
2018-11-21T01:39:30.163Z,90.26
2018-11-21T01:42:00.076Z,90.28
2018-11-21T01:47:25.604Z,90.27
2018-11-21T01:49:55.218Z,90.25
2018-11-21T01:52:24.752Z,90.32
2018-11-21T01:55:12.962Z,90.23
2018-11-21T01:57:42.755Z,90.28
2018-11-21T02:00:13.068Z,90.30
2018-11-21T02:02:42.595Z,90.32
2018-11-21T02:05:31.437Z,90.54
2018-11-21T02:08:01.223Z,90.42
2018-11-21T02:10:31.571Z,90.57
2018-11-21T02:13:01.407Z,90.35
2018-11-21T02:15:30.958Z,90.57
2018-11-21T02:20:55.292Z,90.45
2018-11-21T02:23:25.131Z,90.26
2018-11-21T02:25:54.642Z,90.30
2018-11-21T02:28:24.183Z,90.26
2018-11-21T02:30:54.072Z,90.32
2018-11-21T02:33:26.172Z,90.32
2018-11-21T02:38:50.830Z,90.32
2018-11-21T02:41:20.371Z,90.30
2018-11-21T02:43:49.864Z,90.31
2018-11-21T02:46:19.365Z,90.18
2018-11-21T02:49:07.837Z,90.20
2018-11-21T02:51:38.276Z,90.20
2018-11-21T02:54:08.148Z,90.08
2018-11-21T02:57:15.531Z,90.08
2018-11-21T02:59:45.385Z,90.05
2018-11-21T03:02:15.056Z,89.96
2018-11-21T03:04:44.623Z,90.02
2018-11-21T03:07:33.316Z,90.02
2018-11-21T03:10:02.857Z,89.96
2018-11-21T03:12:32.713Z,89.97
2018-11-21T03:15:02.265Z,89.89
2018-11-21T03:17:32.041Z,89.92
2018-11-21T03:20:01.825Z,89.99
2018-11-21T03:22:31.310Z,89.99
2018-11-21T03:25:00.847Z,90.03
2018-11-21T03:27:30.323Z,90.00
2018-11-21T03:29:59.834Z,89.94
2018-11-21T03:32:29.656Z,90.01
2018-11-21T03:34:59.169Z,89.92
2018-11-21T03:37:28.965Z,89.85
2018-11-21T03:39:58.492Z,89.85
2018-11-21T03:42:37.400Z,89.85
2018-11-21T03:45:25.903Z,89.86
2018-11-21T03:47:55.485Z,89.88
2018-11-21T03:50:25.069Z,89.95
2018-11-21T03:52:54.816Z,89.93
2018-11-21T03:55:24.634Z,89.83
2018-11-21T03:57:54.127Z,89.91
2018-11-21T04:00:23.984Z,89.94
2018-11-21T04:02:53.446Z,89.99
2018-11-21T04:05:41.306Z,89.97
2018-11-21T04:08:10.812Z,90.05
2018-11-21T04:10:40.692Z,89.93
2018-11-21T04:13:10.267Z,89.80
2018-11-21T04:15:39.773Z,89.86
2018-11-21T04:18:09.635Z,89.67
2018-11-21T04:20:39.378Z,89.73
2018-11-21T04:23:27.549Z,89.56
2018-11-21T04:25:57.059Z,89.53
2018-11-21T04:35:13.376Z,89.49
2018-11-21T04:37:43.463Z,89.39
2018-11-21T04:40:13.057Z,89.42
2018-11-21T04:42:42.634Z,89.36
2018-11-21T04:45:12.414Z,89.43
2018-11-21T04:47:42.162Z,89.42
2018-11-21T04:50:12.143Z,89.42
2018-11-21T04:52:41.633Z,89.22
2018-11-21T04:55:11.362Z,89.26
2018-11-21T04:57:40.956Z,89.19
2018-11-21T05:00:11.621Z,89.25
2018-11-21T05:02:41.104Z,89.23
2018-11-21T05:05:11.625Z,89.18
2018-11-21T05:07:41.435Z,89.13
2018-11-21T05:10:11.259Z,89.07
2018-11-21T05:15:20.054Z,89.13
2018-11-21T05:17:49.544Z,89.18
2018-11-21T05:20:19.018Z,89.34
2018-11-21T05:22:48.832Z,89.24
2018-11-21T05:25:18.312Z,89.29
2018-11-21T05:28:42.359Z,89.38
2018-11-21T05:31:12.207Z,89.51
2018-11-21T05:33:41.685Z,89.65
2018-11-21T05:39:43.670Z,89.68
2018-11-21T05:42:13.493Z,89.66
2018-11-21T05:44:43.288Z,89.60
2018-11-21T05:57:04.666Z,89.58
2018-11-21T05:59:34.437Z,89.64
2018-11-21T06:02:04.294Z,89.66
2018-11-21T06:04:33.795Z,89.63
2018-11-21T06:14:53.755Z,89.63
2018-11-21T06:17:23.276Z,89.65
2018-11-21T06:19:52.734Z,89.74
2018-11-21T06:22:22.690Z,89.81
2018-11-21T06:24:52.458Z,89.85
2018-11-21T06:27:22.692Z,89.95
2018-11-21T06:29:52.474Z,90.01
2018-11-21T06:32:22.165Z,89.83
2018-11-21T06:34:51.672Z,89.79
2018-11-21T06:37:21.969Z,89.88
2018-11-21T06:57:13.394Z,90.03
2018-11-21T06:59:41.645Z,90.01
2018-11-21T07:02:09.931Z,90.04
2018-11-21T07:05:16.046Z,90.04
2018-11-21T07:07:44.435Z,90.00
2018-11-21T07:13:22.321Z,90.08
2018-11-21T07:15:50.896Z,90.04
2018-11-21T07:19:06.737Z,90.01
2018-11-21T07:21:35.322Z,89.97
2018-11-21T07:24:03.638Z,89.83
2018-11-21T07:26:32.220Z,89.86
2018-11-21T07:29:19.900Z,89.94
2018-11-21T07:35:20.663Z,89.80
2018-11-21T07:37:48.939Z,89.36
2018-11-21T07:40:17.194Z,89.34
2018-11-21T07:48:54.864Z,89.27
2018-11-21T07:51:23.522Z,89.21
2018-11-21T07:53:52.009Z,89.21
2018-11-21T08:04:58.595Z,89.01
2018-11-21T08:07:31.974Z,88.44
2018-11-21T08:10:19.645Z,88.58
2018-11-21T08:13:16.806Z,88.37
2018-11-21T08:30:30.557Z,87.59
2018-11-21T08:32:58.897Z,87.08
2018-11-21T08:38:25.419Z,87.02
2018-11-21T08:40:54.158Z,86.34
2018-11-21T08:46:41.383Z,86.25
2018-11-21T08:49:38.883Z,85.90
2018-11-21T08:54:55.462Z,85.68
2018-11-21T08:57:23.729Z,85.22
2018-11-21T08:59:51.992Z,85.39
2018-11-21T09:02:20.305Z,85.59
2018-11-21T09:04:48.618Z,85.24
2018-11-21T09:07:20.057Z,85.28
2018-11-21T09:09:49.012Z,85.27
2018-11-21T09:18:05.740Z,84.44
2018-11-21T09:23:44.490Z,83.94
2018-11-21T09:28:51.511Z,84.11
2018-11-21T09:31:20.331Z,83.88
2018-11-21T09:33:48.737Z,83.28
2018-11-21T09:36:19.738Z,83.34
2018-11-21T09:45:51.259Z,81.92
2018-11-21T09:48:39.758Z,81.90
2018-11-21T09:51:27.378Z,82.18
2018-11-21T09:53:55.679Z,82.19
2018-11-21T09:59:33.407Z,81.73
2018-11-21T10:06:37.817Z,81.30
2018-11-21T10:09:19.977Z,80.11
2018-11-21T10:11:48.591Z,80.05
2018-11-21T10:14:16.854Z,79.72
2018-11-21T10:17:05.104Z,79.61
2018-11-21T10:30:36.654Z,79.66
2018-11-21T10:33:05.051Z,79.43
2018-11-21T10:35:35.952Z,78.72
2018-11-21T10:54:14.222Z,78.44
2018-11-21T10:56:43.386Z,78.23
2018-11-21T10:59:12.736Z,78.11
2018-11-21T11:04:53.164Z,78.11
2018-11-21T11:13:38.856Z,77.81
2018-11-21T11:19:37.963Z,77.07
2018-11-21T11:22:25.026Z,76.74
2018-11-21T11:25:12.252Z,76.55
2018-11-21T11:28:02.265Z,76.91
2018-11-21T11:33:55.338Z,77.32
2018-11-21T11:36:42.590Z,77.21
2018-11-21T11:39:30.279Z,77.18
2018-11-21T11:45:33.702Z,76.46
2018-11-21T11:48:29.858Z,76.58
2018-11-21T11:51:15.825Z,76.05
2018-11-21T11:54:17.654Z,76.44
2018-11-21T12:03:04.970Z,76.20
2018-11-21T12:09:12.840Z,75.75
2018-11-21T12:12:18.617Z,75.85
2018-11-21T12:15:11.080Z,75.64
2018-11-21T12:17:59.777Z,75.73
2018-11-21T12:27:33.028Z,74.81
2018-11-21T12:30:29.851Z,75.01
2018-11-21T12:33:20.061Z,75.15
2018-11-21T12:36:08.450Z,75.18
2018-11-21T12:41:40.207Z,74.94
2018-11-21T12:44:32.027Z,74.98
2018-11-21T12:47:19.092Z,74.80
2018-11-21T12:50:41.490Z,74.24
2018-11-21T12:53:43.879Z,74.54
2018-11-21T12:56:37.038Z,74.72
2018-11-21T12:59:17.484Z,74.82
2018-11-21T13:02:05.121Z,74.23
2018-11-21T13:04:52.486Z,74.46
2018-11-21T13:11:11.184Z,74.19
2018-11-21T13:14:01.595Z,73.60
2018-11-21T13:16:52.532Z,72.71
2018-11-21T13:19:38.798Z,73.07
2018-11-21T13:22:26.877Z,72.59
2018-11-21T13:25:15.889Z,73.47
2018-11-21T13:31:03.518Z,73.79
2018-11-21T13:34:05.126Z,73.79
2018-11-21T13:37:08.980Z,74.22
2018-11-21T13:39:58.713Z,74.16
2018-11-21T13:49:02.494Z,75.62
2018-11-21T13:52:00.769Z,75.23
2018-11-21T13:54:56.057Z,75.77
2018-11-21T13:57:35.273Z,75.77
2018-11-21T14:00:14.517Z,76.01
2018-11-21T14:02:56.616Z,75.89
2018-11-21T14:06:07.963Z,75.41
2018-11-21T14:09:13.032Z,75.64
2018-11-21T14:11:37.363Z,75.70
2018-11-21T14:14:15.513Z,75.87
2018-11-21T14:17:02.016Z,75.94
2018-11-21T14:19:33.618Z,75.96
2018-11-21T14:22:10.644Z,76.12
2018-11-21T14:24:53.061Z,76.31
2018-11-21T14:27:26.360Z,76.34
2018-11-21T14:29:57.028Z,76.50
2018-11-21T14:32:57.351Z,76.62
2018-11-21T14:35:40.683Z,76.66
2018-11-21T14:38:33.021Z,76.80
2018-11-21T14:41:30.719Z,76.73
2018-11-21T14:44:04.162Z,76.81
2018-11-21T14:46:44.795Z,77.21
2018-11-21T14:49:33.189Z,77.15
2018-11-21T14:52:01.832Z,77.27
2018-11-21T14:54:46.164Z,77.17
2018-11-21T14:57:41.982Z,77.42
2018-11-21T15:00:23.892Z,77.41
2018-11-21T15:03:27.985Z,77.85
2018-11-21T15:06:07.986Z,77.77
2018-11-21T15:09:27.451Z,78.26
2018-11-21T15:15:25.894Z,78.31
2018-11-21T15:22:01.941Z,78.38
2018-11-21T15:25:17.116Z,77.48
2018-11-21T15:31:58.698Z,78.16
2018-11-21T15:35:05.903Z,78.61
2018-11-21T15:38:02.905Z,78.57
2018-11-21T15:41:19.963Z,78.86
2018-11-21T15:44:07.954Z,79.06
2018-11-21T15:48:43.471Z,79.04
2018-11-21T15:50:32.356Z,79.02
2018-11-21T15:52:59.717Z,79.26
2018-11-21T15:55:56.068Z,79.36
2018-11-21T16:01:55.591Z,79.54
2018-11-21T16:04:26.210Z,79.80
2018-11-21T16:07:29.618Z,80.27
2018-11-21T16:10:01.334Z,79.99
2018-11-21T16:15:10.778Z,79.95
2018-11-21T16:22:58.176Z,80.28
2018-11-21T16:25:32.116Z,80.39
2018-11-21T16:28:00.636Z,80.34
2018-11-21T16:30:29.145Z,80.19
2018-11-21T16:32:57.474Z,80.55
2018-11-21T16:35:36.915Z,80.82
2018-11-21T16:41:18.523Z,81.22
2018-11-21T16:44:06.125Z,81.40
2018-11-21T16:46:22.927Z,81.47
2018-11-21T16:48:51.207Z,81.64
2018-11-21T16:51:30.442Z,81.80
2018-11-21T16:54:05.992Z,81.87
2018-11-21T16:56:34.621Z,81.54
2018-11-21T16:59:08.770Z,81.52
2018-11-21T17:01:36.932Z,81.70
2018-11-21T17:07:05.350Z,81.51
2018-11-21T17:09:58.426Z,81.62
2018-11-21T17:12:28.431Z,81.69
2018-11-21T17:14:56.633Z,81.62
2018-11-21T17:20:22.233Z,81.54
2018-11-21T17:22:52.552Z,81.45
2018-11-21T17:25:22.241Z,81.32
2018-11-21T17:27:53.396Z,81.33
2018-11-21T17:30:24.666Z,81.33
2018-11-21T17:32:57.837Z,81.13
2018-11-21T17:35:26.261Z,81.13
2018-11-21T17:38:13.600Z,81.31
2018-11-21T17:43:20.192Z,81.42
2018-11-21T17:45:54.816Z,81.57
2018-11-21T17:48:29.085Z,81.62
2018-11-21T17:51:26.651Z,81.81
2018-11-21T17:54:05.253Z,81.86
2018-11-21T17:56:33.652Z,81.87
2018-11-21T18:01:39.469Z,81.47
2018-11-21T18:04:08.114Z,81.70
2018-11-21T18:06:53.643Z,81.79
2018-11-21T18:09:21.832Z,81.83
2018-11-21T18:11:56.216Z,81.80
2018-11-21T18:14:35.341Z,81.47
2018-11-21T18:17:03.605Z,81.37
2018-11-21T18:22:10.868Z,81.96
2018-11-21T18:27:16.998Z,82.07
2018-11-21T18:29:50.047Z,82.06
2018-11-21T18:32:34.817Z,82.12
2018-11-21T18:35:02.983Z,81.88
2018-11-21T18:37:31.581Z,81.95
2018-11-21T18:40:04.646Z,82.00
2018-11-21T18:42:33.142Z,82.14
2018-11-21T18:45:01.399Z,82.22
2018-11-21T18:47:29.923Z,81.94
2018-11-21T18:53:07.230Z,82.23
2018-11-21T18:55:41.428Z,82.20
2018-11-21T18:58:34.172Z,82.27
2018-11-21T19:01:02.483Z,82.50
2018-11-21T19:03:31.207Z,82.17
2018-11-21T19:05:59.916Z,82.15
2018-11-21T19:08:28.200Z,81.88
2018-11-21T19:10:57.057Z,82.10
2018-11-21T19:13:45.098Z,82.35
2018-11-21T19:16:13.344Z,82.47
2018-11-21T19:19:01.332Z,82.41
2018-11-21T19:21:48.935Z,82.28
2018-11-21T19:24:28.697Z,82.49
2018-11-21T19:27:16.752Z,82.53
2018-11-21T19:29:45.330Z,82.62
2018-11-21T19:32:16.760Z,82.68
2018-11-21T19:35:04.697Z,82.83
2018-11-21T19:37:33.514Z,82.80
2018-11-21T19:40:04.368Z,82.64
2018-11-21T19:42:32.912Z,82.60
2018-11-21T19:45:21.707Z,82.43
